sensor_id;sensor_type;location;lat;lon;timestamp;pressure;altitude;pressure_sealevel;temperature;humidity
10462;BME280;5278;42.656;23.374;2023-03-22T00:01:10;94292.41;;;12.22;95.04
10462;BME280;5278;42.656;23.374;2023-03-22T00:03:38;94296.00;;;12.21;95.31
10462;BME280;5278;42.656;23.374;2023-03-22T00:06:06;94294.19;;;12.15;96.28
10462;BME280;5278;42.656;23.374;2023-03-22T00:08:33;94283.56;;;12.16;97.20
10462;BME280;5278;42.656;23.374;2023-03-22T00:11:00;94282.41;;;12.19;97.27
10462;BME280;5278;42.656;23.374;2023-03-22T00:13:27;94286.00;;;12.18;97.68
10462;BME280;5278;42.656;23.374;2023-03-22T00:15:55;94284.38;;;12.17;97.63
10462;BME280;5278;42.656;23.374;2023-03-22T00:18:25;94282.13;;;12.07;97.67
10462;BME280;5278;42.656;23.374;2023-03-22T00:20:54;94283.91;;;12.00;98.34
10462;BME280;5278;42.656;23.374;2023-03-22T00:23:22;94287.28;;;12.00;98.71
10462;BME280;5278;42.656;23.374;2023-03-22T00:25:49;94285.88;;;11.98;98.16
10462;BME280;5278;42.656;23.374;2023-03-22T00:28:17;94227.59;;;11.64;98.69
10462;BME280;5278;42.656;23.374;2023-03-22T00:30:50;94282.28;;;11.99;98.50
10462;BME280;5278;42.656;23.374;2023-03-22T00:33:18;94280.28;;;12.01;99.00
10462;BME280;5278;42.656;23.374;2023-03-22T00:35:51;94278.25;;;11.96;99.24
10462;BME280;5278;42.656;23.374;2023-03-22T00:38:19;94271.66;;;11.94;99.27
10462;BME280;5278;42.656;23.374;2023-03-22T00:40:46;94279.97;;;11.83;99.61
10462;BME280;5278;42.656;23.374;2023-03-22T00:43:13;94269.91;;;11.73;100.00
10462;BME280;5278;42.656;23.374;2023-03-22T00:45:41;94281.66;;;11.69;100.00
10462;BME280;5278;42.656;23.374;2023-03-22T00:48:10;94273.47;;;11.72;100.00
10462;BME280;5278;42.656;23.374;2023-03-22T00:50:38;94274.13;;;11.74;100.00
10462;BME280;5278;42.656;23.374;2023-03-22T00:53:06;94273.38;;;11.80;100.00
10462;BME280;5278;42.656;23.374;2023-03-22T00:55:33;94273.56;;;11.79;100.00
10462;BME280;5278;42.656;23.374;2023-03-22T00:58:00;94269.38;;;11.84;100.00
10462;BME280;5278;42.656;23.374;2023-03-22T01:00:28;94276.97;;;11.86;99.74
10462;BME280;5278;42.656;23.374;2023-03-22T01:02:56;94279.03;;;11.90;99.26
10462;BME280;5278;42.656;23.374;2023-03-22T01:05:30;94274.81;;;11.89;98.67
10462;BME280;5278;42.656;23.374;2023-03-22T01:07:59;94277.19;;;11.84;98.40
10462;BME280;5278;42.656;23.374;2023-03-22T01:10:32;94253.00;;;11.90;97.90
10462;BME280;5278;42.656;23.374;2023-03-22T01:13:00;94269.00;;;11.87;98.52
10462;BME280;5278;42.656;23.374;2023-03-22T01:15:27;94261.38;;;11.86;98.06
10462;BME280;5278;42.656;23.374;2023-03-22T01:17:54;94261.94;;;11.81;97.83
10462;BME280;5278;42.656;23.374;2023-03-22T01:20:22;94263.38;;;11.84;97.87
10462;BME280;5278;42.656;23.374;2023-03-22T01:22:49;94251.75;;;11.86;98.01
10462;BME280;5278;42.656;23.374;2023-03-22T01:25:16;94252.97;;;11.84;98.21
10462;BME280;5278;42.656;23.374;2023-03-22T01:27:44;94249.38;;;11.85;98.48
10462;BME280;5278;42.656;23.374;2023-03-22T01:30:11;94249.94;;;11.80;98.88
10462;BME280;5278;42.656;23.374;2023-03-22T01:32:39;94244.53;;;11.82;98.87
10462;BME280;5278;42.656;23.374;2023-03-22T01:35:06;94239.31;;;11.82;99.14
10462;BME280;5278;42.656;23.374;2023-03-22T01:37:33;94244.84;;;11.72;99.27
10462;BME280;5278;42.656;23.374;2023-03-22T01:40:00;94245.22;;;11.69;99.66
10462;BME280;5278;42.656;23.374;2023-03-22T01:42:28;94245.03;;;11.71;99.57
10462;BME280;5278;42.656;23.374;2023-03-22T01:48:00;94242.63;;;11.69;99.23
10462;BME280;5278;42.656;23.374;2023-03-22T01:50:28;94237.19;;;11.64;99.52
10462;BME280;5278;42.656;23.374;2023-03-22T01:52:56;94215.06;;;11.47;99.83
10462;BME280;5278;42.656;23.374;2023-03-22T01:55:24;94246.41;;;11.66;99.68
10462;BME280;5278;42.656;23.374;2023-03-22T01:57:53;94237.19;;;11.64;99.95
10462;BME280;5278;42.656;23.374;2023-03-22T02:00:20;94238.59;;;11.66;100.00
10462;BME280;5278;42.656;23.374;2023-03-22T02:02:49;94239.91;;;11.56;99.95
10462;BME280;5278;42.656;23.374;2023-03-22T02:05:18;94240.38;;;11.59;100.00
10462;BME280;5278;42.656;23.374;2023-03-22T02:07:47;94242.34;;;11.57;100.00
10462;BME280;5278;42.656;23.374;2023-03-22T02:10:18;94237.53;;;11.54;100.00
10462;BME280;5278;42.656;23.374;2023-03-22T02:12:55;94248.75;;;11.55;100.00
10462;BME280;5278;42.656;23.374;2023-03-22T02:15:26;94239.50;;;11.52;100.00
10462;BME280;5278;42.656;23.374;2023-03-22T02:18:08;94238.47;;;11.47;100.00
10462;BME280;5278;42.656;23.374;2023-03-22T02:21:15;94256.63;;;11.40;100.00
10462;BME280;5278;42.656;23.374;2023-03-22T02:24:17;94252.53;;;11.31;100.00
10462;BME280;5278;42.656;23.374;2023-03-22T02:27:12;94252.94;;;11.28;100.00
10462;BME280;5278;42.656;23.374;2023-03-22T02:29:46;94250.91;;;11.23;100.00
10462;BME280;5278;42.656;23.374;2023-03-22T02:32:50;94248.13;;;11.25;100.00
10462;BME280;5278;42.656;23.374;2023-03-22T02:41:23;94260.97;;;11.33;100.00
10462;BME280;5278;42.656;23.374;2023-03-22T02:44:00;94251.38;;;11.34;100.00
10462;BME280;5278;42.656;23.374;2023-03-22T02:46:34;94261.63;;;11.42;100.00
10462;BME280;5278;42.656;23.374;2023-03-22T02:49:11;94261.41;;;11.37;100.00
10462;BME280;5278;42.656;23.374;2023-03-22T02:51:42;94271.78;;;11.37;100.00
10462;BME280;5278;42.656;23.374;2023-03-22T02:54:12;94269.03;;;11.38;100.00
10462;BME280;5278;42.656;23.374;2023-03-22T02:56:48;94257.00;;;11.37;100.00
10462;BME280;5278;42.656;23.374;2023-03-22T02:59:21;94262.19;;;11.37;100.00
10462;BME280;5278;42.656;23.374;2023-03-22T03:01:52;94265.59;;;11.38;100.00
10462;BME280;5278;42.656;23.374;2023-03-22T03:04:24;94265.44;;;11.39;100.00
10462;BME280;5278;42.656;23.374;2023-03-22T03:06:56;94259.41;;;11.39;100.00
10462;BME280;5278;42.656;23.374;2023-03-22T03:09:25;94264.22;;;11.42;100.00
10462;BME280;5278;42.656;23.374;2023-03-22T03:11:53;94264.44;;;11.40;99.71
10462;BME280;5278;42.656;23.374;2023-03-22T03:14:22;94267.47;;;11.44;99.95
10462;BME280;5278;42.656;23.374;2023-03-22T03:17:03;94276.66;;;11.40;99.57
10462;BME280;5278;42.656;23.374;2023-03-22T03:19:36;94271.00;;;11.36;99.80
10462;BME280;5278;42.656;23.374;2023-03-22T03:22:18;94264.97;;;11.36;100.00
10462;BME280;5278;42.656;23.374;2023-03-22T03:24:54;94275.44;;;11.42;99.79
10462;BME280;5278;42.656;23.374;2023-03-22T03:27:28;94277.47;;;11.47;99.86
10462;BME280;5278;42.656;23.374;2023-03-22T03:30:00;94269.31;;;11.50;99.60
10462;BME280;5278;42.656;23.374;2023-03-22T03:32:33;94275.88;;;11.46;99.02
10462;BME280;5278;42.656;23.374;2023-03-22T03:35:06;94287.72;;;11.48;99.27
10462;BME280;5278;42.656;23.374;2023-03-22T03:37:49;94276.31;;;11.49;99.43
10462;BME280;5278;42.656;23.374;2023-03-22T03:40:20;94272.09;;;11.48;98.88
10462;BME280;5278;42.656;23.374;2023-03-22T03:42:52;94273.50;;;11.51;98.36
10462;BME280;5278;42.656;23.374;2023-03-22T03:45:20;94275.75;;;11.54;97.46
10462;BME280;5278;42.656;23.374;2023-03-22T03:47:49;94279.34;;;11.53;97.02
10462;BME280;5278;42.656;23.374;2023-03-22T03:50:22;94277.31;;;11.48;97.19
10462;BME280;5278;42.656;23.374;2023-03-22T03:52:51;94279.72;;;11.50;97.33
10462;BME280;5278;42.656;23.374;2023-03-22T03:55:18;94278.78;;;11.57;96.97
10462;BME280;5278;42.656;23.374;2023-03-22T03:57:46;94288.56;;;11.55;96.59
10462;BME280;5278;42.656;23.374;2023-03-22T04:00:15;94280.94;;;11.54;96.42
10462;BME280;5278;42.656;23.374;2023-03-22T04:02:43;94284.53;;;11.53;96.37
10462;BME280;5278;42.656;23.374;2023-03-22T04:05:11;94283.78;;;11.59;96.66
10462;BME280;5278;42.656;23.374;2023-03-22T04:07:39;94257.38;;;11.34;96.38
10462;BME280;5278;42.656;23.374;2023-03-22T04:10:08;94277.59;;;11.60;95.78
10462;BME280;5278;42.656;23.374;2023-03-22T04:12:36;94287.38;;;11.58;95.66
10462;BME280;5278;42.656;23.374;2023-03-22T04:15:03;94291.72;;;11.51;95.84
10462;BME280;5278;42.656;23.374;2023-03-22T04:17:32;94287.06;;;11.46;96.13
10462;BME280;5278;42.656;23.374;2023-03-22T04:19:59;94296.81;;;11.38;96.83
10462;BME280;5278;42.656;23.374;2023-03-22T04:22:30;94290.47;;;11.40;96.77
10462;BME280;5278;42.656;23.374;2023-03-22T04:24:59;94299.00;;;11.34;97.00
10462;BME280;5278;42.656;23.374;2023-03-22T04:27:28;94300.63;;;11.35;97.69
10462;BME280;5278;42.656;23.374;2023-03-22T04:29:54;94301.22;;;11.37;97.55
10462;BME280;5278;42.656;23.374;2023-03-22T04:32:22;94309.81;;;11.38;97.62
10462;BME280;5278;42.656;23.374;2023-03-22T04:34:51;94306.66;;;11.42;97.54
10462;BME280;5278;42.656;23.374;2023-03-22T04:37:18;94312.50;;;11.44;97.28
10462;BME280;5278;42.656;23.374;2023-03-22T04:39:46;94309.09;;;11.44;97.42
10462;BME280;5278;42.656;23.374;2023-03-22T04:42:14;94305.09;;;11.48;97.80
10462;BME280;5278;42.656;23.374;2023-03-22T04:44:41;94305.75;;;11.50;97.63
10462;BME280;5278;42.656;23.374;2023-03-22T04:47:08;94305.75;;;11.50;97.79
10462;BME280;5278;42.656;23.374;2023-03-22T04:49:34;94304.31;;;11.47;97.84
10462;BME280;5278;42.656;23.374;2023-03-22T04:52:03;94314.88;;;11.46;98.37
10462;BME280;5278;42.656;23.374;2023-03-22T04:54:31;94306.97;;;11.33;98.76
10462;BME280;5278;42.656;23.374;2023-03-22T04:56:57;94319.31;;;11.45;98.80
10462;BME280;5278;42.656;23.374;2023-03-22T04:59:25;94315.41;;;11.35;99.38
10462;BME280;5278;42.656;23.374;2023-03-22T05:01:52;94324.69;;;11.44;98.89
10462;BME280;5278;42.656;23.374;2023-03-22T05:04:19;94326.56;;;11.50;98.09
10462;BME280;5278;42.656;23.374;2023-03-22T05:06:47;94325.91;;;11.48;98.34
10462;BME280;5278;42.656;23.374;2023-03-22T05:09:15;94328.91;;;11.45;98.54
10462;BME280;5278;42.656;23.374;2023-03-22T05:11:42;94334.53;;;11.48;98.40
10462;BME280;5278;42.656;23.374;2023-03-22T05:14:09;94336.31;;;11.48;98.30
10462;BME280;5278;42.656;23.374;2023-03-22T05:16:36;94342.16;;;11.50;98.35
10462;BME280;5278;42.656;23.374;2023-03-22T05:19:05;94337.94;;;11.49;98.03
10462;BME280;5278;42.656;23.374;2023-03-22T05:21:38;94333.91;;;11.46;97.96
10462;BME280;5278;42.656;23.374;2023-03-22T05:24:06;94343.22;;;11.55;97.83
10462;BME280;5278;42.656;23.374;2023-03-22T05:26:35;94333.34;;;11.51;97.96
10462;BME280;5278;42.656;23.374;2023-03-22T05:29:07;94337.56;;;11.52;97.88
10462;BME280;5278;42.656;23.374;2023-03-22T05:31:36;94342.41;;;11.55;97.59
10462;BME280;5278;42.656;23.374;2023-03-22T05:34:04;94343.56;;;11.52;98.36
10462;BME280;5278;42.656;23.374;2023-03-22T05:36:32;94351.19;;;11.54;98.22
10462;BME280;5278;42.656;23.374;2023-03-22T05:39:01;94343.94;;;11.49;98.21
10462;BME280;5278;42.656;23.374;2023-03-22T05:41:28;94352.81;;;11.55;98.12
10462;BME280;5278;42.656;23.374;2023-03-22T05:43:59;94350.44;;;11.60;97.88
10462;BME280;5278;42.656;23.374;2023-03-22T05:46:27;94354.59;;;11.54;98.44
10462;BME280;5278;42.656;23.374;2023-03-22T05:48:56;94349.97;;;11.50;98.08
10462;BME280;5278;42.656;23.374;2023-03-22T05:51:23;94352.00;;;11.54;98.11
10462;BME280;5278;42.656;23.374;2023-03-22T05:53:52;94356.81;;;11.57;98.09
10462;BME280;5278;42.656;23.374;2023-03-22T05:56:19;94364.31;;;11.67;97.86
10462;BME280;5278;42.656;23.374;2023-03-22T05:58:48;94360.25;;;11.79;97.76
10462;BME280;5278;42.656;23.374;2023-03-22T06:01:18;94366.25;;;11.80;96.53
10462;BME280;5278;42.656;23.374;2023-03-22T06:03:45;94362.75;;;11.94;96.43
10462;BME280;5278;42.656;23.374;2023-03-22T06:06:12;94375.22;;;11.98;95.68
10462;BME280;5278;42.656;23.374;2023-03-22T06:08:40;94368.38;;;11.97;95.21
10462;BME280;5278;42.656;23.374;2023-03-22T06:11:07;94339.03;;;11.82;94.28
10462;BME280;5278;42.656;23.374;2023-03-22T06:13:35;94287.84;;;11.40;93.66
10462;BME280;5278;42.656;23.374;2023-03-22T06:16:04;94374.81;;;12.01;94.74
10462;BME280;5278;42.656;23.374;2023-03-22T06:18:32;94374.41;;;11.98;95.01
10462;BME280;5278;42.656;23.374;2023-03-22T06:21:01;94371.63;;;11.99;95.23
10462;BME280;5278;42.656;23.374;2023-03-22T06:23:30;94374.06;;;12.07;94.96
10462;BME280;5278;42.656;23.374;2023-03-22T06:25:57;94376.91;;;12.13;94.76
10462;BME280;5278;42.656;23.374;2023-03-22T06:28:24;94379.13;;;12.16;94.68
10462;BME280;5278;42.656;23.374;2023-03-22T06:30:55;94373.72;;;12.17;94.74
10462;BME280;5278;42.656;23.374;2023-03-22T06:33:22;94382.94;;;12.13;95.17
10462;BME280;5278;42.656;23.374;2023-03-22T06:35:51;94384.47;;;12.07;95.42
10462;BME280;5278;42.656;23.374;2023-03-22T06:38:19;94384.31;;;12.09;94.70
10462;BME280;5278;42.656;23.374;2023-03-22T06:40:47;94382.69;;;12.08;93.97
10462;BME280;5278;42.656;23.374;2023-03-22T06:43:14;94391.72;;;12.12;94.37
10462;BME280;5278;42.656;23.374;2023-03-22T06:45:41;94391.16;;;12.17;94.81
10462;BME280;5278;42.656;23.374;2023-03-22T06:48:08;94389.00;;;12.20;94.51
10462;BME280;5278;42.656;23.374;2023-03-22T06:50:35;94388.03;;;12.28;93.92
10462;BME280;5278;42.656;23.374;2023-03-22T06:53:07;94397.47;;;12.35;93.52
10462;BME280;5278;42.656;23.374;2023-03-22T06:55:34;94391.97;;;12.45;93.04
10462;BME280;5278;42.656;23.374;2023-03-22T06:58:01;94400.84;;;12.57;92.14
10462;BME280;5278;42.656;23.374;2023-03-22T07:00:28;94381.59;;;12.58;90.88
10462;BME280;5278;42.656;23.374;2023-03-22T07:02:55;94392.94;;;12.78;90.33
10462;BME280;5278;42.656;23.374;2023-03-22T07:05:23;94404.56;;;12.82;90.25
10462;BME280;5278;42.656;23.374;2023-03-22T07:07:50;94408.94;;;12.75;89.77
10462;BME280;5278;42.656;23.374;2023-03-22T07:10:20;94417.03;;;12.87;88.73
10462;BME280;5278;42.656;23.374;2023-03-22T07:12:47;94417.22;;;12.85;89.19
10462;BME280;5278;42.656;23.374;2023-03-22T07:15:14;94404.63;;;12.89;88.93
10462;BME280;5278;42.656;23.374;2023-03-22T07:17:42;94416.25;;;12.93;88.48
10462;BME280;5278;42.656;23.374;2023-03-22T07:20:09;94413.06;;;12.98;88.43
10462;BME280;5278;42.656;23.374;2023-03-22T07:22:36;94417.66;;;12.95;88.35
10462;BME280;5278;42.656;23.374;2023-03-22T07:25:04;94423.91;;;12.94;88.20
10462;BME280;5278;42.656;23.374;2023-03-22T07:27:32;94424.72;;;12.95;88.60
10462;BME280;5278;42.656;23.374;2023-03-22T07:29:59;94419.91;;;12.99;88.72
10462;BME280;5278;42.656;23.374;2023-03-22T07:32:26;94427.09;;;12.97;88.19
10462;BME280;5278;42.656;23.374;2023-03-22T07:34:54;94437.53;;;12.97;87.16
10462;BME280;5278;42.656;23.374;2023-03-22T07:37:21;94435.91;;;12.95;87.19
10462;BME280;5278;42.656;23.374;2023-03-22T07:39:48;94438.34;;;12.97;87.21
10462;BME280;5278;42.656;23.374;2023-03-22T07:42:15;94438.53;;;12.95;87.06
10462;BME280;5278;42.656;23.374;2023-03-22T07:44:43;94443.16;;;12.93;87.38
10462;BME280;5278;42.656;23.374;2023-03-22T07:47:11;94441.53;;;12.92;87.38
10462;BME280;5278;42.656;23.374;2023-03-22T07:49:39;94442.34;;;12.93;86.72
10462;BME280;5278;42.656;23.374;2023-03-22T07:52:05;94445.91;;;12.85;86.56
10462;BME280;5278;42.656;23.374;2023-03-22T07:54:32;94436.63;;;12.76;87.11
10462;BME280;5278;42.656;23.374;2023-03-22T07:57:02;94445.34;;;12.90;86.80
10462;BME280;5278;42.656;23.374;2023-03-22T07:59:29;94449.13;;;12.87;87.13
10462;BME280;5278;42.656;23.374;2023-03-22T08:01:57;94453.72;;;12.85;87.00
10462;BME280;5278;42.656;23.374;2023-03-22T08:04:24;94455.09;;;12.81;87.33
10462;BME280;5278;42.656;23.374;2023-03-22T08:06:51;94446.69;;;12.79;87.91
10462;BME280;5278;42.656;23.374;2023-03-22T08:09:19;94452.03;;;12.71;88.68
10462;BME280;5278;42.656;23.374;2023-03-22T08:11:46;94446.66;;;12.73;89.03
10462;BME280;5278;42.656;23.374;2023-03-22T08:14:14;94451.81;;;12.66;89.29
10462;BME280;5278;42.656;23.374;2023-03-22T08:16:42;94447.41;;;12.67;90.28
10462;BME280;5278;42.656;23.374;2023-03-22T08:19:11;94434.38;;;13.08;97.10
10462;BME280;5278;42.656;23.374;2023-03-22T08:21:38;94446.94;;;14.58;88.84
10462;BME280;5278;42.656;23.374;2023-03-22T08:24:12;94449.25;;;15.50;78.90
10462;BME280;5278;42.656;23.374;2023-03-22T08:26:41;94447.06;;;16.23;73.99
10462;BME280;5278;42.656;23.374;2023-03-22T08:29:10;94444.22;;;16.93;69.40
10462;BME280;5278;42.656;23.374;2023-03-22T08:31:37;94449.41;;;17.17;67.78
10462;BME280;5278;42.656;23.374;2023-03-22T08:34:04;94447.13;;;17.57;65.76
10462;BME280;5278;42.656;23.374;2023-03-22T08:36:33;94434.78;;;17.76;64.19
10462;BME280;5278;42.656;23.374;2023-03-22T08:39:00;94442.84;;;18.04;63.38
10462;BME280;5278;42.656;23.374;2023-03-22T08:41:28;94442.63;;;18.06;63.31
10462;BME280;5278;42.656;23.374;2023-03-22T08:43:55;94450.34;;;18.31;61.53
10462;BME280;5278;42.656;23.374;2023-03-22T08:46:21;94450.72;;;18.46;60.54
10462;BME280;5278;42.656;23.374;2023-03-22T08:48:49;94447.63;;;18.37;60.70
10462;BME280;5278;42.656;23.374;2023-03-22T08:51:16;94449.59;;;18.42;60.26
10462;BME280;5278;42.656;23.374;2023-03-22T08:53:46;94448.56;;;18.43;59.76
10462;BME280;5278;42.656;23.374;2023-03-22T08:56:13;94429.22;;;18.37;59.34
10462;BME280;5278;42.656;23.374;2023-03-22T08:58:42;94450.00;;;18.39;59.37
10462;BME280;5278;42.656;23.374;2023-03-22T09:01:11;94451.72;;;18.33;59.50
10462;BME280;5278;42.656;23.374;2023-03-22T09:03:38;94455.75;;;18.36;59.48
10462;BME280;5278;42.656;23.374;2023-03-22T09:06:06;94451.53;;;18.46;59.52
10462;BME280;5278;42.656;23.374;2023-03-22T09:08:33;94456.00;;;18.46;59.73
10462;BME280;5278;42.656;23.374;2023-03-22T09:11:02;94449.63;;;18.65;58.70
10462;BME280;5278;42.656;23.374;2023-03-22T09:13:29;94450.56;;;18.29;59.83
10462;BME280;5278;42.656;23.374;2023-03-22T09:15:56;94460.78;;;17.66;62.76
10462;BME280;5278;42.656;23.374;2023-03-22T09:18:23;94459.78;;;17.12;64.71
10462;BME280;5278;42.656;23.374;2023-03-22T09:20:51;94461.03;;;16.67;67.43
10462;BME280;5278;42.656;23.374;2023-03-22T09:23:18;94462.84;;;16.10;70.19
10462;BME280;5278;42.656;23.374;2023-03-22T09:25:46;94460.47;;;15.71;71.70
10462;BME280;5278;42.656;23.374;2023-03-22T09:28:16;94471.03;;;15.44;72.81
10462;BME280;5278;42.656;23.374;2023-03-22T09:30:43;94474.53;;;15.25;73.78
10462;BME280;5278;42.656;23.374;2023-03-22T09:33:10;94472.41;;;14.96;75.41
10462;BME280;5278;42.656;23.374;2023-03-22T09:35:39;94427.81;;;14.51;76.73
10462;BME280;5278;42.656;23.374;2023-03-22T09:38:07;94470.63;;;14.70;78.17
10462;BME280;5278;42.656;23.374;2023-03-22T09:40:37;94464.81;;;14.61;78.39
10462;BME280;5278;42.656;23.374;2023-03-22T09:43:06;94372.38;;;13.84;78.67
10462;BME280;5278;42.656;23.374;2023-03-22T09:45:38;94473.66;;;14.34;79.81
10462;BME280;5278;42.656;23.374;2023-03-22T09:48:12;94469.63;;;14.25;81.38
10462;BME280;5278;42.656;23.374;2023-03-22T09:50:44;94471.84;;;14.28;82.06
10462;BME280;5278;42.656;23.374;2023-03-22T09:53:14;94466.41;;;14.23;82.32
10462;BME280;5278;42.656;23.374;2023-03-22T09:55:45;94471.22;;;14.26;82.47
10462;BME280;5278;42.656;23.374;2023-03-22T09:58:19;94467.63;;;14.27;81.75
10462;BME280;5278;42.656;23.374;2023-03-22T10:00:54;94480.09;;;14.32;81.37
10462;BME280;5278;42.656;23.374;2023-03-22T10:03:36;94476.47;;;14.33;81.25
10462;BME280;5278;42.656;23.374;2023-03-22T10:06:07;94479.53;;;14.43;81.14
10462;BME280;5278;42.656;23.374;2023-03-22T10:08:50;94480.31;;;14.37;81.28
10462;BME280;5278;42.656;23.374;2023-03-22T10:11:25;94480.09;;;14.32;81.61
10462;BME280;5278;42.656;23.374;2023-03-22T10:13:59;94477.88;;;14.29;81.73
10462;BME280;5278;42.656;23.374;2023-03-22T10:16:31;94470.84;;;14.22;80.63
10462;BME280;5278;42.656;23.374;2023-03-22T10:19:04;94486.94;;;14.33;80.60
10462;BME280;5278;42.656;23.374;2023-03-22T10:21:34;94492.53;;;14.30;81.17
10462;BME280;5278;42.656;23.374;2023-03-22T10:24:07;94489.75;;;14.25;80.69
10462;BME280;5278;42.656;23.374;2023-03-22T10:26:41;94466.59;;;14.02;79.90
10462;BME280;5278;42.656;23.374;2023-03-22T10:29:14;94490.13;;;14.15;80.36
10462;BME280;5278;42.656;23.374;2023-03-22T10:31:49;94490.91;;;14.15;80.94
10462;BME280;5278;42.656;23.374;2023-03-22T10:34:20;94487.50;;;14.15;80.48
10462;BME280;5278;42.656;23.374;2023-03-22T10:36:49;94491.56;;;14.24;79.73
10462;BME280;5278;42.656;23.374;2023-03-22T10:39:25;94482.50;;;14.33;78.73
10462;BME280;5278;42.656;23.374;2023-03-22T10:41:54;94486.13;;;14.32;80.20
10462;BME280;5278;42.656;23.374;2023-03-22T10:44:23;94480.28;;;14.30;79.43
10462;BME280;5278;42.656;23.374;2023-03-22T10:46:54;94484.72;;;14.23;79.93
10462;BME280;5278;42.656;23.374;2023-03-22T10:49:26;94477.47;;;14.32;79.89
10462;BME280;5278;42.656;23.374;2023-03-22T10:51:58;94482.88;;;14.30;80.27
10462;BME280;5278;42.656;23.374;2023-03-22T10:54:28;94480.47;;;14.35;79.70
10462;BME280;5278;42.656;23.374;2023-03-22T10:56:55;94490.59;;;14.38;79.59
10462;BME280;5278;42.656;23.374;2023-03-22T10:59:46;94484.34;;;14.39;79.85
10462;BME280;5278;42.656;23.374;2023-03-22T11:02:20;94477.72;;;14.43;78.22
10462;BME280;5278;42.656;23.374;2023-03-22T11:04:50;94472.06;;;14.40;77.55
10462;BME280;5278;42.656;23.374;2023-03-22T11:07:28;94471.06;;;14.41;78.72
10462;BME280;5278;42.656;23.374;2023-03-22T11:10:10;94481.72;;;14.46;78.80
10462;BME280;5278;42.656;23.374;2023-03-22T11:12:41;94475.31;;;14.48;79.96
10462;BME280;5278;42.656;23.374;2023-03-22T11:15:20;94473.28;;;14.44;77.87
10462;BME280;5278;42.656;23.374;2023-03-22T11:17:49;94480.53;;;14.42;77.32
10462;BME280;5278;42.656;23.374;2023-03-22T11:20:18;94473.28;;;14.37;77.15
10462;BME280;5278;42.656;23.374;2023-03-22T11:22:47;94470.25;;;14.40;77.90
10462;BME280;5278;42.656;23.374;2023-03-22T11:25:17;94472.47;;;14.43;76.98
10462;BME280;5278;42.656;23.374;2023-03-22T11:27:52;94475.25;;;14.35;75.86
10462;BME280;5278;42.656;23.374;2023-03-22T11:30:22;94480.69;;;14.34;75.53
10462;BME280;5278;42.656;23.374;2023-03-22T11:33:01;94494.97;;;14.31;74.81
10462;BME280;5278;42.656;23.374;2023-03-22T11:35:29;94477.47;;;14.25;75.24
10462;BME280;5278;42.656;23.374;2023-03-22T11:37:57;94480.88;;;14.12;77.10
10462;BME280;5278;42.656;23.374;2023-03-22T11:40:28;94473.22;;;14.11;77.58
10462;BME280;5278;42.656;23.374;2023-03-22T11:43:05;94447.69;;;14.00;78.19
10462;BME280;5278;42.656;23.374;2023-03-22T11:45:41;94467.59;;;14.01;77.70
10462;BME280;5278;42.656;23.374;2023-03-22T11:48:16;94459.16;;;14.05;77.77
10462;BME280;5278;42.656;23.374;2023-03-22T11:50:46;94461.38;;;14.02;78.20
10462;BME280;5278;42.656;23.374;2023-03-22T11:53:15;94462.19;;;14.02;78.17
10462;BME280;5278;42.656;23.374;2023-03-22T11:55:45;94469.59;;;14.05;78.17
10462;BME280;5278;42.656;23.374;2023-03-22T11:58:24;94474.44;;;14.08;77.76
10462;BME280;5278;42.656;23.374;2023-03-22T12:00:57;94472.66;;;14.09;77.46
10462;BME280;5278;42.656;23.374;2023-03-22T12:03:29;94475.06;;;14.04;78.11
10462;BME280;5278;42.656;23.374;2023-03-22T12:05:57;94473.59;;;13.95;79.68
10462;BME280;5278;42.656;23.374;2023-03-22T12:08:39;94470.81;;;13.96;79.88
10462;BME280;5278;42.656;23.374;2023-03-22T12:11:13;94460.56;;;13.88;80.59
10462;BME280;5278;42.656;23.374;2023-03-22T12:13:45;94464.34;;;13.86;80.39
10462;BME280;5278;42.656;23.374;2023-03-22T12:16:16;94405.03;;;13.47;81.08
10462;BME280;5278;42.656;23.374;2023-03-22T12:18:55;94465.16;;;13.86;81.28
10462;BME280;5278;42.656;23.374;2023-03-22T12:21:27;94463.53;;;13.85;80.50
10462;BME280;5278;42.656;23.374;2023-03-22T12:23:59;94463.19;;;14.08;80.69
10462;BME280;5278;42.656;23.374;2023-03-22T12:26:28;94470.22;;;14.27;80.43
10462;BME280;5278;42.656;23.374;2023-03-22T12:28:59;94453.59;;;14.48;79.15
10462;BME280;5278;42.656;23.374;2023-03-22T12:31:30;94455.94;;;14.82;78.09
10462;BME280;5278;42.656;23.374;2023-03-22T12:34:03;94458.28;;;15.10;75.09
10462;BME280;5278;42.656;23.374;2023-03-22T12:36:36;94448.53;;;15.30;72.01
10462;BME280;5278;42.656;23.374;2023-03-22T12:39:08;94458.13;;;15.49;70.27
10462;BME280;5278;42.656;23.374;2023-03-22T12:41:45;94456.34;;;15.88;70.07
10462;BME280;5278;42.656;23.374;2023-03-22T12:44:16;94460.63;;;16.14;68.19
10462;BME280;5278;42.656;23.374;2023-03-22T12:46:48;94448.97;;;16.34;68.38
10462;BME280;5278;42.656;23.374;2023-03-22T12:49:20;94446.25;;;16.48;65.33
10462;BME280;5278;42.656;23.374;2023-03-22T12:51:53;94450.69;;;16.47;64.19
10462;BME280;5278;42.656;23.374;2023-03-22T12:54:23;94442.53;;;16.55;63.94
10462;BME280;5278;42.656;23.374;2023-03-22T12:56:51;94449.53;;;16.68;63.51
10462;BME280;5278;42.656;23.374;2023-03-22T12:59:22;94445.44;;;16.72;63.42
10462;BME280;5278;42.656;23.374;2023-03-22T13:01:55;94450.78;;;16.84;63.51
10462;BME280;5278;42.656;23.374;2023-03-22T13:04:32;94441.06;;;16.84;62.39
10462;BME280;5278;42.656;23.374;2023-03-22T13:07:14;94440.41;;;16.89;60.78
10462;BME280;5278;42.656;23.374;2023-03-22T13:09:46;94442.13;;;16.83;60.84
10462;BME280;5278;42.656;23.374;2023-03-22T13:12:31;94440.34;;;16.77;61.24
10462;BME280;5278;42.656;23.374;2023-03-22T13:15:02;94442.50;;;16.62;62.78
10462;BME280;5278;42.656;23.374;2023-03-22T13:17:50;94443.94;;;16.33;64.97
10462;BME280;5278;42.656;23.374;2023-03-22T13:20:23;94440.09;;;16.04;65.65
10462;BME280;5278;42.656;23.374;2023-03-22T13:23:02;94441.28;;;15.83;66.26
10462;BME280;5278;42.656;23.374;2023-03-22T13:25:33;94425.78;;;15.37;67.74